This is the latest recevied weather packets stored in our database for station/object WW1TA. If no packets are shown the sender has not sent any weather packets the latest 1 day(s).
| Time | Temp. | Humidity | Pressure | Rain* | Wind** | Luminosity | Snow |
|---|---|---|---|---|---|---|---|
| 1778012366 | 25° C | 51% | 1018.8 hPa | 0 mm | 1.34 m/s, 248° | 530 W/m² | - |
| 1778012063 | 25.56° C | 52% | 1018.9 hPa | 0 mm | 0.45 m/s, 224° | 618 W/m² | - |
| 1778011761 | 25.56° C | 50% | 1019.1 hPa | 0 mm | 0 m/s | 703 W/m² | - |
| 1778011458 | 25.56° C | 51% | 1019.4 hPa | 0 mm | 0.89 m/s, 144° | 547 W/m² | - |
| 1778011154 | 26.67° C | 48% | 1019.3 hPa | 0 mm | 0.89 m/s, 283° | 718 W/m² | - |
| 1778010851 | 26.11° C | 49% | 1019.3 hPa | 0 mm | 1.34 m/s, 113° | 740 W/m² | - |
| 1778010548 | 25.56° C | 48% | 1019.3 hPa | 0 mm | 1.34 m/s, 259° | 724 W/m² | - |
| 1778010246 | 26.67° C | 48% | 1019.6 hPa | 0 mm | 0.45 m/s, 91° | 527 W/m² | - |
| 1778009945 | 26.67° C | 47% | 1019.7 hPa | 0 mm | 0.45 m/s, 91° | 755 W/m² | - |
| 1778009644 | 26.11° C | 47% | 1019.7 hPa | 0 mm | 0 m/s | 402 W/m² | - |
| 1778009341 | 25.56° C | 50% | 1020 hPa | 0 mm | 1.34 m/s, 281° | 718 W/m² | - |
| 1778009039 | 24.44° C | 52% | 1020 hPa | 0 mm | 0.89 m/s, 239° | 799 W/m² | - |
| 1778008736 | 25° C | 51% | 1020 hPa | 0 mm | 1.34 m/s, 262° | 191 W/m² | - |
| 1778008435 | 25.56° C | 49% | 1020.1 hPa | 0 mm | 0.89 m/s, 335° | 828 W/m² | - |
| 1778008132 | 25.56° C | 50% | 1020.1 hPa | 0 mm | 0.89 m/s, 273° | 317 W/m² | - |
| 1778007827 | 25.56° C | 50% | 1020 hPa | 0 mm | 0 m/s | 236 W/m² | - |
| 1778007522 | 25.56° C | 50% | 1020 hPa | 0 mm | 0 m/s | 254 W/m² | - |
| 1778007219 | 26.11° C | 48% | 1020.1 hPa | 0 mm | 0.89 m/s, 254° | 236 W/m² | - |
| 1778006915 | 25.56° C | 48% | 1020 hPa | 0 mm | 0 m/s | 793 W/m² | - |
| 1778006612 | 25° C | 49% | 1020.2 hPa | 0 mm | 1.79 m/s, 256° | 875 W/m² | - |
| 1778006309 | 25° C | 49% | 1020 hPa | 0 mm | 0.89 m/s, 226° | 820 W/m² | - |
| 1778006006 | 26.11° C | 48% | 1019.7 hPa | 0 mm | 0 m/s | 563 W/m² | - |
| 1778005703 | 26.67° C | 47% | 1019.9 hPa | 0 mm | 1.34 m/s, 243° | 761 W/m² | - |
| 1778005400 | 26.67° C | 46% | 1020 hPa | 0 mm | 0 m/s | 812 W/m² | - |
| 1778005096 | 27.78° C | 44% | 1020 hPa | 0 mm | 1.34 m/s, 11° | 871 W/m² | - |
* Rain latest hour (hover to see other rain measurements)
** Current wind speed in m/s (hover to see current wind gust speed)